sensor_id;sensor_type;location;lat;lon;timestamp;pressure;altitude;pressure_sealevel;temperature;humidity
61898;BME280;47850;50.274;18.908;2023-03-03T00:01:17;98317.84;;;-1.52;85.68
61898;BME280;47850;50.274;18.908;2023-03-03T00:03:45;98322.02;;;-1.57;86.01
61898;BME280;47850;50.274;18.908;2023-03-03T00:06:13;98319.86;;;-1.61;86.30
61898;BME280;47850;50.274;18.908;2023-03-03T00:08:41;98318.48;;;-1.62;86.57
61898;BME280;47850;50.274;18.908;2023-03-03T00:11:09;98317.23;;;-1.64;86.62
61898;BME280;47850;50.274;18.908;2023-03-03T00:13:49;98319.31;;;-1.64;86.58
61898;BME280;47850;50.274;18.908;2023-03-03T00:16:24;98317.00;;;-1.67;86.59
61898;BME280;47850;50.274;18.908;2023-03-03T00:18:53;98315.84;;;-1.67;86.77
61898;BME280;47850;50.274;18.908;2023-03-03T00:23:52;98316.15;;;-1.64;87.13
61898;BME280;47850;50.274;18.908;2023-03-03T00:26:30;98315.98;;;-1.65;87.25
61898;BME280;47850;50.274;18.908;2023-03-03T00:29:01;98309.48;;;-1.64;87.19
61898;BME280;47850;50.274;18.908;2023-03-03T00:31:34;98304.73;;;-1.66;87.21
61898;BME280;47850;50.274;18.908;2023-03-03T00:34:25;98307.23;;;-1.69;87.04
61898;BME280;47850;50.274;18.908;2023-03-03T00:36:55;98302.60;;;-1.72;87.04
61898;BME280;47850;50.274;18.908;2023-03-03T00:41:59;98310.98;;;-1.79;87.29
61898;BME280;47850;50.274;18.908;2023-03-03T00:47:18;98306.34;;;-1.81;87.34
61898;BME280;47850;50.274;18.908;2023-03-03T00:50:17;98307.37;;;-1.83;87.38
61898;BME280;47850;50.274;18.908;2023-03-03T00:53:09;98303.98;;;-1.84;87.57
61898;BME280;47850;50.274;18.908;2023-03-03T00:55:38;98301.42;;;-1.86;87.77
61898;BME280;47850;50.274;18.908;2023-03-03T00:58:07;98302.04;;;-1.87;87.63
61898;BME280;47850;50.274;18.908;2023-03-03T01:00:36;98307.59;;;-1.88;87.72
61898;BME280;47850;50.274;18.908;2023-03-03T01:03:15;98303.26;;;-1.89;87.91
61898;BME280;47850;50.274;18.908;2023-03-03T01:05:43;98307.73;;;-1.89;87.78
61898;BME280;47850;50.274;18.908;2023-03-03T01:08:11;98307.30;;;-1.89;87.93
61898;BME280;47850;50.274;18.908;2023-03-03T01:10:49;98310.06;;;-1.90;87.77
61898;BME280;47850;50.274;18.908;2023-03-03T01:13:22;98306.55;;;-1.91;87.69
61898;BME280;47850;50.274;18.908;2023-03-03T01:15:50;98302.55;;;-1.94;87.84
61898;BME280;47850;50.274;18.908;2023-03-03T01:18:18;98299.98;;;-1.97;87.77
61898;BME280;47850;50.274;18.908;2023-03-03T01:20:46;98296.17;;;-2.00;87.88
61898;BME280;47850;50.274;18.908;2023-03-03T01:23:14;98288.36;;;-2.02;87.84
61898;BME280;47850;50.274;18.908;2023-03-03T01:25:42;98284.74;;;-2.04;88.05
61898;BME280;47850;50.274;18.908;2023-03-03T01:28:09;98279.55;;;-2.06;87.94
61898;BME280;47850;50.274;18.908;2023-03-03T01:30:37;98277.95;;;-2.09;88.07
61898;BME280;47850;50.274;18.908;2023-03-03T01:33:05;98279.41;;;-2.11;87.89
61898;BME280;47850;50.274;18.908;2023-03-03T01:35:33;98280.30;;;-2.15;87.96
61898;BME280;47850;50.274;18.908;2023-03-03T01:38:02;98273.48;;;-2.18;88.05
61898;BME280;47850;50.274;18.908;2023-03-03T01:40:31;98271.89;;;-2.20;87.95
61898;BME280;47850;50.274;18.908;2023-03-03T01:42:59;98266.85;;;-2.23;88.16
61898;BME280;47850;50.274;18.908;2023-03-03T01:45:31;98263.21;;;-2.26;88.06
61898;BME280;47850;50.274;18.908;2023-03-03T01:50:55;98252.70;;;-2.30;88.04
61898;BME280;47850;50.274;18.908;2023-03-03T01:53:32;98249.09;;;-2.32;87.91
61898;BME280;47850;50.274;18.908;2023-03-03T01:56:02;98248.64;;;-2.35;88.07
61898;BME280;47850;50.274;18.908;2023-03-03T01:58:34;98250.41;;;-2.37;87.96
61898;BME280;47850;50.274;18.908;2023-03-03T02:01:06;98254.69;;;-2.40;87.85
61898;BME280;47850;50.274;18.908;2023-03-03T02:03:35;98255.56;;;-2.41;87.61
61898;BME280;47850;50.274;18.908;2023-03-03T02:06:07;98255.52;;;-2.41;87.46
61898;BME280;47850;50.274;18.908;2023-03-03T02:08:50;98256.48;;;-2.41;87.20
61898;BME280;47850;50.274;18.908;2023-03-03T02:11:21;98255.05;;;-2.45;87.17
61898;BME280;47850;50.274;18.908;2023-03-03T02:13:49;98258.16;;;-2.47;87.24
61898;BME280;47850;50.274;18.908;2023-03-03T02:16:17;98265.95;;;-2.49;87.17
61898;BME280;47850;50.274;18.908;2023-03-03T02:18:45;98263.74;;;-2.50;87.18
61898;BME280;47850;50.274;18.908;2023-03-03T02:21:21;98267.52;;;-2.52;87.00
61898;BME280;47850;50.274;18.908;2023-03-03T02:24:04;98266.38;;;-2.54;87.09
61898;BME280;47850;50.274;18.908;2023-03-03T02:26:38;98272.39;;;-2.54;87.04
61898;BME280;47850;50.274;18.908;2023-03-03T02:29:08;98268.27;;;-2.55;86.84
61898;BME280;47850;50.274;18.908;2023-03-03T02:31:36;98268.86;;;-2.57;86.88
61898;BME280;47850;50.274;18.908;2023-03-03T02:34:05;98265.08;;;-2.59;86.67
61898;BME280;47850;50.274;18.908;2023-03-03T02:36:36;98270.67;;;-2.60;86.82
61898;BME280;47850;50.274;18.908;2023-03-03T02:39:17;98272.34;;;-2.61;86.65
61898;BME280;47850;50.274;18.908;2023-03-03T02:42:01;98277.26;;;-2.66;86.54
61898;BME280;47850;50.274;18.908;2023-03-03T02:44:32;98279.52;;;-2.69;86.47
61898;BME280;47850;50.274;18.908;2023-03-03T02:47:00;98281.64;;;-2.70;86.33
61898;BME280;47850;50.274;18.908;2023-03-03T02:49:33;98285.69;;;-2.71;86.33
61898;BME280;47850;50.274;18.908;2023-03-03T02:52:04;98283.80;;;-2.74;86.35
61898;BME280;47850;50.274;18.908;2023-03-03T02:54:33;98286.79;;;-2.76;86.16
61898;BME280;47850;50.274;18.908;2023-03-03T02:57:02;98284.49;;;-2.76;86.45
61898;BME280;47850;50.274;18.908;2023-03-03T02:59:30;98279.35;;;-2.79;86.42
61898;BME280;47850;50.274;18.908;2023-03-03T03:01:59;98281.05;;;-2.79;86.62
61898;BME280;47850;50.274;18.908;2023-03-03T03:04:27;98272.67;;;-2.79;86.79
61898;BME280;47850;50.274;18.908;2023-03-03T03:06:55;98271.49;;;-2.80;86.95
61898;BME280;47850;50.274;18.908;2023-03-03T03:09:24;98275.47;;;-2.78;87.16
61898;BME280;47850;50.274;18.908;2023-03-03T03:11:52;98271.20;;;-2.78;87.28
61898;BME280;47850;50.274;18.908;2023-03-03T03:14:20;98268.44;;;-2.77;87.49
61898;BME280;47850;50.274;18.908;2023-03-03T03:16:48;98262.81;;;-2.76;87.63
61898;BME280;47850;50.274;18.908;2023-03-03T03:19:16;98259.80;;;-2.75;87.79
61898;BME280;47850;50.274;18.908;2023-03-03T03:21:43;98258.31;;;-2.75;87.80
61898;BME280;47850;50.274;18.908;2023-03-03T03:24:11;98259.77;;;-2.74;87.80
61898;BME280;47850;50.274;18.908;2023-03-03T03:26:39;98261.31;;;-2.72;87.81
61898;BME280;47850;50.274;18.908;2023-03-03T03:29:07;98256.70;;;-2.70;88.00
61898;BME280;47850;50.274;18.908;2023-03-03T03:31:34;98255.86;;;-2.68;88.03
61898;BME280;47850;50.274;18.908;2023-03-03T03:34:03;98256.60;;;-2.63;88.24
61898;BME280;47850;50.274;18.908;2023-03-03T03:36:30;98256.63;;;-2.60;88.31
61898;BME280;47850;50.274;18.908;2023-03-03T03:38:58;98255.84;;;-2.57;88.37
61898;BME280;47850;50.274;18.908;2023-03-03T03:41:29;98249.88;;;-2.54;88.34
61898;BME280;47850;50.274;18.908;2023-03-03T03:43:57;98245.70;;;-2.52;88.21
61898;BME280;47850;50.274;18.908;2023-03-03T03:46:24;98245.90;;;-2.52;88.44
61898;BME280;47850;50.274;18.908;2023-03-03T03:48:52;98241.05;;;-2.52;88.43
61898;BME280;47850;50.274;18.908;2023-03-03T03:51:20;98239.21;;;-2.53;88.56
61898;BME280;47850;50.274;18.908;2023-03-03T03:53:48;98246.02;;;-2.54;88.47
61898;BME280;47850;50.274;18.908;2023-03-03T03:56:15;98249.59;;;-2.57;88.18
61898;BME280;47850;50.274;18.908;2023-03-03T03:58:44;98250.17;;;-2.60;88.35
61898;BME280;47850;50.274;18.908;2023-03-03T04:01:11;98254.59;;;-2.63;88.27
61898;BME280;47850;50.274;18.908;2023-03-03T04:03:39;98256.23;;;-2.65;88.31
61898;BME280;47850;50.274;18.908;2023-03-03T04:06:07;98255.30;;;-2.69;88.29
61898;BME280;47850;50.274;18.908;2023-03-03T04:08:35;98255.67;;;-2.70;88.37
61898;BME280;47850;50.274;18.908;2023-03-03T04:11:03;98256.30;;;-2.72;88.51
61898;BME280;47850;50.274;18.908;2023-03-03T04:13:30;98259.69;;;-2.73;88.46
61898;BME280;47850;50.274;18.908;2023-03-03T04:16:01;98256.27;;;-2.76;88.35
61898;BME280;47850;50.274;18.908;2023-03-03T04:18:29;98258.46;;;-2.77;88.30
61898;BME280;47850;50.274;18.908;2023-03-03T04:20:57;98261.27;;;-2.80;88.17
61898;BME280;47850;50.274;18.908;2023-03-03T04:23:25;98265.64;;;-2.85;88.15
61898;BME280;47850;50.274;18.908;2023-03-03T04:25:52;98269.73;;;-2.88;88.09
61898;BME280;47850;50.274;18.908;2023-03-03T04:28:23;98272.35;;;-2.90;88.38
61898;BME280;47850;50.274;18.908;2023-03-03T04:30:51;98264.34;;;-2.93;88.30
61898;BME280;47850;50.274;18.908;2023-03-03T04:33:19;98265.50;;;-2.95;88.33
61898;BME280;47850;50.274;18.908;2023-03-03T04:35:47;98267.98;;;-3.00;88.10
61898;BME280;47850;50.274;18.908;2023-03-03T04:38:15;98268.73;;;-3.07;87.94
61898;BME280;47850;50.274;18.908;2023-03-03T04:40:42;98270.16;;;-3.11;87.85
61898;BME280;47850;50.274;18.908;2023-03-03T04:43:10;98266.30;;;-3.17;87.86
61898;BME280;47850;50.274;18.908;2023-03-03T04:45:38;98269.86;;;-3.19;88.09
61898;BME280;47850;50.274;18.908;2023-03-03T04:48:06;98266.25;;;-3.21;88.11
61898;BME280;47850;50.274;18.908;2023-03-03T04:50:34;98266.09;;;-3.21;88.18
61898;BME280;47850;50.274;18.908;2023-03-03T04:53:02;98264.61;;;-3.25;88.15
61898;BME280;47850;50.274;18.908;2023-03-03T04:55:30;98260.70;;;-3.29;88.07
61898;BME280;47850;50.274;18.908;2023-03-03T04:57:58;98260.05;;;-3.33;88.20
61898;BME280;47850;50.274;18.908;2023-03-03T05:00:25;98251.29;;;-3.34;88.20
61898;BME280;47850;50.274;18.908;2023-03-03T05:02:53;98248.17;;;-3.38;88.04
61898;BME280;47850;50.274;18.908;2023-03-03T05:05:21;98257.48;;;-3.40;88.09
61898;BME280;47850;50.274;18.908;2023-03-03T05:07:49;98266.20;;;-3.42;88.29
61898;BME280;47850;50.274;18.908;2023-03-03T05:10:16;98271.27;;;-3.39;88.64
61898;BME280;47850;50.274;18.908;2023-03-03T05:12:44;98275.72;;;-3.36;88.75
61898;BME280;47850;50.274;18.908;2023-03-03T05:15:12;98274.29;;;-3.33;88.98
61898;BME280;47850;50.274;18.908;2023-03-03T05:17:40;98278.91;;;-3.32;89.12
61898;BME280;47850;50.274;18.908;2023-03-03T05:20:08;98284.57;;;-3.28;89.32
61898;BME280;47850;50.274;18.908;2023-03-03T05:22:37;98290.27;;;-3.29;89.35
61898;BME280;47850;50.274;18.908;2023-03-03T05:25:05;98290.21;;;-3.34;88.82
61898;BME280;47850;50.274;18.908;2023-03-03T05:27:33;98290.48;;;-3.39;88.58
61898;BME280;47850;50.274;18.908;2023-03-03T05:30:01;98291.11;;;-3.43;88.53
61898;BME280;47850;50.274;18.908;2023-03-03T05:32:29;98292.82;;;-3.47;88.43
61898;BME280;47850;50.274;18.908;2023-03-03T05:34:56;98292.73;;;-3.50;88.38
61898;BME280;47850;50.274;18.908;2023-03-03T05:37:26;98295.54;;;-3.53;88.56
61898;BME280;47850;50.274;18.908;2023-03-03T05:39:54;98299.45;;;-3.54;88.40
61898;BME280;47850;50.274;18.908;2023-03-03T05:42:21;98305.14;;;-3.54;88.49
61898;BME280;47850;50.274;18.908;2023-03-03T05:44:49;98306.50;;;-3.54;88.41
61898;BME280;47850;50.274;18.908;2023-03-03T05:47:17;98306.05;;;-3.54;88.46
61898;BME280;47850;50.274;18.908;2023-03-03T05:49:45;98317.50;;;-3.55;88.55
61898;BME280;47850;50.274;18.908;2023-03-03T05:52:13;98314.21;;;-3.54;88.40
61898;BME280;47850;50.274;18.908;2023-03-03T05:54:40;98323.32;;;-3.53;88.34
61898;BME280;47850;50.274;18.908;2023-03-03T05:57:08;98326.87;;;-3.52;88.38
61898;BME280;47850;50.274;18.908;2023-03-03T05:59:36;98325.98;;;-3.49;88.43
61898;BME280;47850;50.274;18.908;2023-03-03T06:02:04;98329.33;;;-3.45;88.34
61898;BME280;47850;50.274;18.908;2023-03-03T06:04:32;98329.53;;;-3.42;88.33
61898;BME280;47850;50.274;18.908;2023-03-03T06:07:00;98330.52;;;-3.39;88.26
61898;BME280;47850;50.274;18.908;2023-03-03T06:09:28;98339.66;;;-3.34;88.23
61898;BME280;47850;50.274;18.908;2023-03-03T06:11:56;98341.59;;;-3.28;88.11
61898;BME280;47850;50.274;18.908;2023-03-03T06:14:24;98342.51;;;-3.22;88.12
61898;BME280;47850;50.274;18.908;2023-03-03T06:16:52;98344.77;;;-3.17;87.90
61898;BME280;47850;50.274;18.908;2023-03-03T06:19:19;98349.35;;;-3.13;87.74
61898;BME280;47850;50.274;18.908;2023-03-03T06:21:47;98357.35;;;-3.10;87.50
61898;BME280;47850;50.274;18.908;2023-03-03T06:24:15;98352.90;;;-3.06;87.61
61898;BME280;47850;50.274;18.908;2023-03-03T06:26:43;98345.02;;;-3.06;87.14
61898;BME280;47850;50.274;18.908;2023-03-03T06:29:10;98339.46;;;-3.04;86.90
61898;BME280;47850;50.274;18.908;2023-03-03T06:31:38;98345.15;;;-2.99;86.76
61898;BME280;47850;50.274;18.908;2023-03-03T06:34:06;98345.44;;;-2.91;86.74
61898;BME280;47850;50.274;18.908;2023-03-03T06:36:34;98341.82;;;-2.85;86.70
61898;BME280;47850;50.274;18.908;2023-03-03T06:39:02;98339.64;;;-2.79;86.51
61898;BME280;47850;50.274;18.908;2023-03-03T06:41:30;98353.34;;;-2.72;86.36
61898;BME280;47850;50.274;18.908;2023-03-03T06:43:58;98367.86;;;-2.68;86.06
61898;BME280;47850;50.274;18.908;2023-03-03T06:46:27;98373.92;;;-2.69;85.77
61898;BME280;47850;50.274;18.908;2023-03-03T06:48:55;98374.11;;;-2.75;85.34
61898;BME280;47850;50.274;18.908;2023-03-03T06:51:26;98372.06;;;-2.80;84.87
61898;BME280;47850;50.274;18.908;2023-03-03T06:53:59;98369.16;;;-2.78;85.08
61898;BME280;47850;50.274;18.908;2023-03-03T06:56:29;98365.67;;;-2.79;84.95
61898;BME280;47850;50.274;18.908;2023-03-03T06:59:00;98358.23;;;-2.86;84.49
61898;BME280;47850;50.274;18.908;2023-03-03T07:01:34;98358.26;;;-2.89;84.36
61898;BME280;47850;50.274;18.908;2023-03-03T07:04:24;98363.05;;;-2.85;84.58
61898;BME280;47850;50.274;18.908;2023-03-03T07:06:56;98367.11;;;-2.79;84.64
61898;BME280;47850;50.274;18.908;2023-03-03T07:09:26;98371.46;;;-2.76;84.58
61898;BME280;47850;50.274;18.908;2023-03-03T07:12:08;98366.83;;;-2.77;84.11
61898;BME280;47850;50.274;18.908;2023-03-03T07:14:45;98357.64;;;-2.78;83.67
61898;BME280;47850;50.274;18.908;2023-03-03T07:17:19;98351.52;;;-2.75;83.90
61898;BME280;47850;50.274;18.908;2023-03-03T07:19:47;98352.27;;;-2.66;84.02
61898;BME280;47850;50.274;18.908;2023-03-03T07:22:22;98358.63;;;-2.55;83.90
61898;BME280;47850;50.274;18.908;2023-03-03T07:24:53;98357.20;;;-2.50;83.21
61898;BME280;47850;50.274;18.908;2023-03-03T07:27:22;98376.73;;;-2.43;83.11
61898;BME280;47850;50.274;18.908;2023-03-03T07:30:08;98382.38;;;-2.34;83.28
61898;BME280;47850;50.274;18.908;2023-03-03T07:32:46;98383.52;;;-2.22;83.08
61898;BME280;47850;50.274;18.908;2023-03-03T07:37:58;98395.46;;;-2.17;82.76
61898;BME280;47850;50.274;18.908;2023-03-03T07:40:34;98381.39;;;-2.21;82.64
61898;BME280;47850;50.274;18.908;2023-03-03T07:43:50;98377.92;;;-2.21;82.54
61898;BME280;47850;50.274;18.908;2023-03-03T07:46:41;98372.48;;;-2.12;82.45
61898;BME280;47850;50.274;18.908;2023-03-03T07:49:31;98377.22;;;-2.00;82.41
61898;BME280;47850;50.274;18.908;2023-03-03T07:52:01;98376.47;;;-1.90;82.31
61898;BME280;47850;50.274;18.908;2023-03-03T07:54:45;98395.73;;;-1.81;82.26
61898;BME280;47850;50.274;18.908;2023-03-03T08:10:49;98398.67;;;-2.07;83.09
61898;BME280;47850;50.274;18.908;2023-03-03T08:13:20;98391.77;;;-2.02;83.38
61898;BME280;47850;50.274;18.908;2023-03-03T08:15:49;98390.17;;;-1.93;83.69
61898;BME280;47850;50.274;18.908;2023-03-03T08:18:45;98395.11;;;-1.88;83.59
61898;BME280;47850;50.274;18.908;2023-03-03T08:21:26;98401.23;;;-1.87;83.42
61898;BME280;47850;50.274;18.908;2023-03-03T08:23:53;98392.94;;;-1.84;83.65
61898;BME280;47850;50.274;18.908;2023-03-03T08:26:22;98389.98;;;-1.83;83.93
61898;BME280;47850;50.274;18.908;2023-03-03T08:28:52;98393.27;;;-1.79;83.96
61898;BME280;47850;50.274;18.908;2023-03-03T08:31:20;98398.08;;;-1.84;84.00
61898;BME280;47850;50.274;18.908;2023-03-03T08:33:48;98399.14;;;-1.91;84.21
61898;BME280;47850;50.274;18.908;2023-03-03T08:36:16;98405.35;;;-1.91;84.51
61898;BME280;47850;50.274;18.908;2023-03-03T08:38:43;98411.27;;;-1.85;84.66
61898;BME280;47850;50.274;18.908;2023-03-03T08:41:11;98417.50;;;-1.81;84.53
61898;BME280;47850;50.274;18.908;2023-03-03T08:43:39;98427.72;;;-1.78;84.76
61898;BME280;47850;50.274;18.908;2023-03-03T08:46:07;98428.41;;;-1.78;84.84
61898;BME280;47850;50.274;18.908;2023-03-03T08:48:37;98418.20;;;-1.78;84.81
61898;BME280;47850;50.274;18.908;2023-03-03T08:51:05;98411.05;;;-1.73;85.04
61898;BME280;47850;50.274;18.908;2023-03-03T08:53:33;98409.67;;;-1.70;84.96
61898;BME280;47850;50.274;18.908;2023-03-03T08:56:04;98404.60;;;-1.65;85.13
61898;BME280;47850;50.274;18.908;2023-03-03T08:58:32;98405.16;;;-1.61;84.95
61898;BME280;47850;50.274;18.908;2023-03-03T09:01:00;98401.13;;;-1.57;84.91
61898;BME280;47850;50.274;18.908;2023-03-03T09:03:28;98390.64;;;-1.52;85.19
61898;BME280;47850;50.274;18.908;2023-03-03T09:05:56;98387.04;;;-1.48;85.12
61898;BME280;47850;50.274;18.908;2023-03-03T09:08:24;98390.44;;;-1.39;85.17
61898;BME280;47850;50.274;18.908;2023-03-03T09:10:52;98398.41;;;-1.31;85.07
61898;BME280;47850;50.274;18.908;2023-03-03T09:13:20;98393.09;;;-1.24;84.83
61898;BME280;47850;50.274;18.908;2023-03-03T09:15:48;98393.15;;;-1.15;85.07
61898;BME280;47850;50.274;18.908;2023-03-03T09:18:25;98396.50;;;-1.11;84.68
61898;BME280;47850;50.274;18.908;2023-03-03T09:20:55;98396.80;;;-1.06;84.84
61898;BME280;47850;50.274;18.908;2023-03-03T09:28:48;98392.27;;;-1.02;84.78
61898;BME280;47850;50.274;18.908;2023-03-03T09:33:51;98383.27;;;-0.97;84.60
61898;BME280;47850;50.274;18.908;2023-03-03T09:36:35;98382.85;;;-0.94;84.64
61898;BME280;47850;50.274;18.908;2023-03-03T09:39:20;98384.09;;;-0.94;84.58
61898;BME280;47850;50.274;18.908;2023-03-03T09:56:09;98406.33;;;-1.08;84.90
61898;BME280;47850;50.274;18.908;2023-03-03T10:01:42;98419.51;;;-1.20;85.84
61898;BME280;47850;50.274;18.908;2023-03-03T10:18:35;98407.91;;;-1.00;85.78
61898;BME280;47850;50.274;18.908;2023-03-03T10:21:10;98417.30;;;-0.96;85.46
61898;BME280;47850;50.274;18.908;2023-03-03T10:29:27;98427.80;;;-1.01;85.26
61898;BME280;47850;50.274;18.908;2023-03-03T10:35:02;98433.67;;;-0.99;85.81
61898;BME280;47850;50.274;18.908;2023-03-03T10:50:39;98428.83;;;-0.82;84.36
61898;BME280;47850;50.274;18.908;2023-03-03T10:56:21;98424.41;;;-0.77;84.28
61898;BME280;47850;50.274;18.908;2023-03-03T11:02:09;98426.38;;;-0.69;83.90
61898;BME280;47850;50.274;18.908;2023-03-03T11:07:38;98427.58;;;-0.65;83.57
61898;BME280;47850;50.274;18.908;2023-03-03T11:10:37;98424.94;;;-0.66;83.52
61898;BME280;47850;50.274;18.908;2023-03-03T11:13:25;98422.64;;;-0.66;83.27
61898;BME280;47850;50.274;18.908;2023-03-03T11:19:00;98418.69;;;-0.65;83.67
61898;BME280;47850;50.274;18.908;2023-03-03T11:22:12;98419.98;;;-0.65;83.51
61898;BME280;47850;50.274;18.908;2023-03-03T11:32:48;98407.77;;;-0.58;83.23
61898;BME280;47850;50.274;18.908;2023-03-03T11:35:35;98409.23;;;-0.52;83.22
61898;BME280;47850;50.274;18.908;2023-03-03T11:40:56;98403.41;;;-0.47;82.89
61898;BME280;47850;50.274;18.908;2023-03-03T11:45:59;98400.29;;;-0.45;82.72
61898;BME280;47850;50.274;18.908;2023-03-03T11:48:53;98403.95;;;-0.40;82.74
61898;BME280;47850;50.274;18.908;2023-03-03T11:54:09;98411.77;;;-0.32;82.70
61898;BME280;47850;50.274;18.908;2023-03-03T11:56:45;98414.34;;;-0.31;82.76
61898;BME280;47850;50.274;18.908;2023-03-03T12:11:24;98410.55;;;-0.34;82.22
61898;BME280;47850;50.274;18.908;2023-03-03T12:13:58;98412.84;;;-0.35;82.29
61898;BME280;47850;50.274;18.908;2023-03-03T12:16:55;98407.83;;;-0.37;82.22
61898;BME280;47850;50.274;18.908;2023-03-03T12:22:31;98404.97;;;-0.31;82.40
61898;BME280;47850;50.274;18.908;2023-03-03T12:28:19;98395.85;;;-0.18;81.77
61898;BME280;47850;50.274;18.908;2023-03-03T12:41:54;98385.88;;;0.09;80.60
61898;BME280;47850;50.274;18.908;2023-03-03T12:55:07;98378.55;;;0.26;79.39
61898;BME280;47850;50.274;18.908;2023-03-03T12:57:43;98379.20;;;0.27;79.38
61898;BME280;47850;50.274;18.908;2023-03-03T13:00:30;98375.85;;;0.25;79.45
61898;BME280;47850;50.274;18.908;2023-03-03T13:06:14;98372.52;;;0.36;79.03
61898;BME280;47850;50.274;18.908;2023-03-03T13:11:39;98373.19;;;0.43;78.42
61898;BME280;47850;50.274;18.908;2023-03-03T13:19:58;98367.10;;;0.53;78.13
61898;BME280;47850;50.274;18.908;2023-03-03T13:25:13;98366.21;;;0.68;77.21
61898;BME280;47850;50.274;18.908;2023-03-03T13:27:49;98371.74;;;0.72;76.70
61898;BME280;47850;50.274;18.908;2023-03-03T13:30:22;98373.52;;;0.68;76.07
61898;BME280;47850;50.274;18.908;2023-03-03T13:33:07;98370.41;;;0.64;76.50
61898;BME280;47850;50.274;18.908;2023-03-03T13:35:46;98371.52;;;0.64;76.39
61898;BME280;47850;50.274;18.908;2023-03-03T13:38:24;98373.34;;;0.59;75.93
61898;BME280;47850;50.274;18.908;2023-03-03T13:43:43;98365.33;;;0.52;76.23
61898;BME280;47850;50.274;18.908;2023-03-03T13:58:22;98358.38;;;0.42;76.96
61898;BME280;47850;50.274;18.908;2023-03-03T14:06:04;98361.01;;;0.42;76.51
61898;BME280;47850;50.274;18.908;2023-03-03T14:20:02;98357.79;;;0.33;76.31
61898;BME280;47850;50.274;18.908;2023-03-03T14:22:54;98358.07;;;0.34;76.23
61898;BME280;47850;50.274;18.908;2023-03-03T14:25:23;98356.81;;;0.29;76.06
61898;BME280;47850;50.274;18.908;2023-03-03T14:28:10;98352.94;;;0.25;76.25
61898;BME280;47850;50.274;18.908;2023-03-03T14:30:42;98353.52;;;0.24;76.28
61898;BME280;47850;50.274;18.908;2023-03-03T14:35:43;98355.13;;;0.32;75.52
61898;BME280;47850;50.274;18.908;2023-03-03T14:38:21;98351.73;;;0.27;75.31
61898;BME280;47850;50.274;18.908;2023-03-03T14:41:05;98354.74;;;0.28;75.60
61898;BME280;47850;50.274;18.908;2023-03-03T14:43:39;98354.80;;;0.28;75.60
61898;BME280;47850;50.274;18.908;2023-03-03T14:48:53;98345.62;;;0.27;75.65
61898;BME280;47850;50.274;18.908;2023-03-03T14:51:40;98348.20;;;0.23;75.57
61898;BME280;47850;50.274;18.908;2023-03-03T14:54:38;98347.62;;;0.19;75.83
61898;BME280;47850;50.274;18.908;2023-03-03T14:57:15;98346.30;;;0.13;75.99
61898;BME280;47850;50.274;18.908;2023-03-03T14:59:59;98351.70;;;0.05;75.85
61898;BME280;47850;50.274;18.908;2023-03-03T15:03:18;98355.81;;;-0.04;76.09
61898;BME280;47850;50.274;18.908;2023-03-03T15:05:23;98362.56;;;-0.11;76.15
61898;BME280;47850;50.274;18.908;2023-03-03T15:10:40;98352.83;;;-0.20;76.81
61898;BME280;47850;50.274;18.908;2023-03-03T15:18:16;98348.71;;;-0.37;77.44
61898;BME280;47850;50.274;18.908;2023-03-03T15:20:54;98348.55;;;-0.43;77.70
61898;BME280;47850;50.274;18.908;2023-03-03T15:23:49;98344.61;;;-0.48;77.70
61898;BME280;47850;50.274;18.908;2023-03-03T15:26:46;98344.48;;;-0.56;78.21
61898;BME280;47850;50.274;18.908;2023-03-03T15:29:44;98339.62;;;-0.65;78.35
61898;BME280;47850;50.274;18.908;2023-03-03T15:32:28;98337.58;;;-0.72;78.39
61898;BME280;47850;50.274;18.908;2023-03-03T15:38:45;98339.27;;;-0.82;79.14
61898;BME280;47850;50.274;18.908;2023-03-03T15:41:28;98338.89;;;-0.83;79.49
61898;BME280;47850;50.274;18.908;2023-03-03T15:46:49;98341.09;;;-0.82;79.90
61898;BME280;47850;50.274;18.908;2023-03-03T16:03:32;98338.75;;;-0.93;81.02
61898;BME280;47850;50.274;18.908;2023-03-03T16:06:10;98337.52;;;-0.93;81.00
61898;BME280;47850;50.274;18.908;2023-03-03T16:08:43;98338.02;;;-0.92;80.97
61898;BME280;47850;50.274;18.908;2023-03-03T16:31:35;98345.17;;;-0.90;82.30
61898;BME280;47850;50.274;18.908;2023-03-03T16:34:54;98346.84;;;-0.90;82.58
61898;BME280;47850;50.274;18.908;2023-03-03T16:37:29;98349.14;;;-0.90;82.51
61898;BME280;47850;50.274;18.908;2023-03-03T16:40:19;98348.34;;;-0.90;82.65
61898;BME280;47850;50.274;18.908;2023-03-03T16:42:58;98345.92;;;-0.91;82.92
61898;BME280;47850;50.274;18.908;2023-03-03T16:45:37;98351.27;;;-0.94;83.20
61898;BME280;47850;50.274;18.908;2023-03-03T16:51:36;98352.16;;;-1.04;83.36
61898;BME280;47850;50.274;18.908;2023-03-03T16:57:13;98353.30;;;-1.05;83.57
61898;BME280;47850;50.274;18.908;2023-03-03T16:59:54;98352.37;;;-1.04;83.86
61898;BME280;47850;50.274;18.908;2023-03-03T17:02:47;98353.58;;;-1.02;83.98
61898;BME280;47850;50.274;18.908;2023-03-03T17:22:03;98357.06;;;-1.04;84.24
61898;BME280;47850;50.274;18.908;2023-03-03T17:24:52;98363.23;;;-1.04;84.72
61898;BME280;47850;50.274;18.908;2023-03-03T17:27:32;98364.77;;;-1.05;84.61
61898;BME280;47850;50.274;18.908;2023-03-03T17:41:56;98360.59;;;-1.16;85.57
61898;BME280;47850;50.274;18.908;2023-03-03T17:47:49;98362.34;;;-1.20;85.66
61898;BME280;47850;50.274;18.908;2023-03-03T18:09:25;98360.54;;;-1.11;85.60
61898;BME280;47850;50.274;18.908;2023-03-03T18:12:09;98361.61;;;-1.11;85.38
61898;BME280;47850;50.274;18.908;2023-03-03T18:14:51;98362.56;;;-1.08;85.39
61898;BME280;47850;50.274;18.908;2023-03-03T18:22:50;98366.93;;;-1.13;85.70
61898;BME280;47850;50.274;18.908;2023-03-03T18:25:22;98370.14;;;-1.15;85.94
61898;BME280;47850;50.274;18.908;2023-03-03T18:30:50;98371.29;;;-1.17;85.83
61898;BME280;47850;50.274;18.908;2023-03-03T18:33:56;98370.95;;;-1.18;85.86
61898;BME280;47850;50.274;18.908;2023-03-03T18:38:56;98368.58;;;-1.24;87.06
61898;BME280;47850;50.274;18.908;2023-03-03T18:41:25;98369.33;;;-1.26;87.35
61898;BME280;47850;50.274;18.908;2023-03-03T18:44:01;98365.75;;;-1.30;87.24
61898;BME280;47850;50.274;18.908;2023-03-03T18:46:48;98363.79;;;-1.31;87.27